LTAP

Details ICAO LTAP (MZH)
Name MERZIFON
Region Turkey
Timezone Europe/Istanbul (UTC+3.0)
Plans Departing 15
Arriving 21
Stats Elevation 1,758 ft / 536 m (AMSL)
Location 40.829374° 35.521990°
Runways 1
Magnetic Variation 6.039° E
Sunrise 2017-12-17 04:57:51 UTC / 2017-12-17 07:57:51 Local
Sunset 2017-12-17 14:12:52 UTC / 2017-12-17 17:12:52 Local
Advertisement - Login to hide

Runways

ID Width Length Bearing (true) Bearing (mag) Surface Threshold Offset Overrun Length
05 148 ft / 45 m 9,589 ft / 2,923 m 54.47° 48.43° Asphalt 0 ft / 0 m 798 ft / 243 m
23 148 ft / 45 m 9,589 ft / 2,923 m 234.48° 228.44° Asphalt 0 ft / 0 m 1,006 ft / 307 m

Map

Weather


0- 5 10 15 20 25 30 35+ Temperature / ° C

Clouds and Precipitation
Forecast for 2017-12-17 18:00 UTC. Updated an hour ago

Ground ~20,000 ft ~40,000 ft Winds

METAR

LTAP 171350Z 35001KT 9999 SCT040 BKN090 12/06 Q1015 NOSIG RMK RWY23 34003KT

TAF

Not found

Frequencies

Recorded 122.42 MHz ATIS
Tower 122.10 MHz TWR
Ground 121.95 MHz GND
Approach 122.10 MHz APP
Warning: Do not use this data for real-world aviation or navigation. No guarantee of current accuracy is given.